Terminal Aerodrome Forecast
Issued by NWS

Home | Current Version | Previous Version | Text Only | Print | Product List | Glossary On
Versions: 1 2 3 4 5 6 7 8 9 10 11 12 13 14 15 16 17 18 19 20 21 22 23 24 25 26 27 28 29 30 31 32 33 34 35 36 37 38 39
000
FTUS43 KDLH 202339
TAFHYR
TAF
KHYR 202339Z 2100/2124 36007KT P6SM OVC025
     FM210300 VRB02KT P6SM OVC025
     FM210800 00000KT 6SM BR SKC
     FM211300 25006KT P6SM FEW020
     FM211800 28010G19KT P6SM SCT025=

USA.gov is the U.S. government's official web portal to all federal, state and local government web resources and services.